PDT,Max TemperatureF,Mean TemperatureF,Min TemperatureF,Max Dew PointF,MeanDew PointF,Min DewpointF,Max Humidity, Mean Humidity, Min Humidity, Max Sea Level PressureIn, Mean Sea Level PressureIn, Min Sea Level PressureIn, Max VisibilityMiles, Mean VisibilityMiles, Min VisibilityMiles, Max Wind SpeedMPH, Mean Wind SpeedMPH, Max Gust SpeedMPH,PrecipitationIn, CloudCover, Events, WindDirDegrees
2013-9-1,91,77,62,58,53,44,73,47,21,29.91,29.87,29.82,10,10,10,18,7,23,0.00,1,,189
2013-9-2,79,73,66,67,60,58,78,66,54,29.93,29.88,29.85,10,10,7,12,5,15,0.10,6,Rain-Thunderstorm,166
2013-9-3,85,74,62,57,53,45,78,52,25,29.96,29.92,29.88,10,10,10,13,7,17,0.00,0,,193
2013-9-4,88,75,61,56,53,43,84,53,21,30.00,29.94,29.89,10,10,10,13,6,16,0.00,0,,195
2013-9-5,87,73,59,56,53,46,80,53,25,29.98,29.93,29.89,10,10,10,13,6,17,0.00,0,,185
2013-9-6,94,74,54,55,49,35,86,51,15,29.97,29.90,29.81,10,10,10,16,4,21,0.00,0,,338
2013-9-7,98,77,55,52,47,36,86,49,12,29.87,29.82,29.76,10,10,10,7,1,10,0.00,0,,221
2013-9-8,101,80,58,54,49,37,80,46,12,29.84,29.78,29.70,10,10,10,12,3,17,0.00,0,,299
2013-9-9,101,80,59,55,51,44,80,48,15,29.78,29.70,29.62,10,10,10,10,2,15,0.00,0,,250
2013-9-10,87,75,62,57,55,52,78,58,37,29.84,29.74,29.67,10,10,10,23,7,30,0.00,0,,195
2013-9-11,80,71,61,57,56,55,84,65,45,29.96,29.91,29.84,10,10,10,16,9,23,0.00,0,,202
2013-9-12,88,74,59,59,57,55,90,62,34,29.96,29.89,29.82,10,10,10,9,5,14,0.00,0,,179
2013-9-13,91,75,59,57,55,53,87,60,32,29.86,29.79,29.69,10,10,10,10,5,16,0.00,0,,195
2013-9-14,85,72,59,56,54,52,80,59,37,29.78,29.72,29.67,10,10,10,13,6,21,0.00,0,,191
2013-9-15,88,73,57,56,53,48,80,53,26,29.82,29.77,29.72,10,10,10,13,7,18,0.00,0,,188
2013-9-16,88,74,59,57,55,49,90,58,26,29.87,29.81,29.73,10,10,10,9,5,16,0.00,0,,181
2013-9-17,83,71,59,53,51,46,78,53,28,29.86,29.80,29.77,10,10,10,15,7,21,0.00,0,,203
2013-9-18,87,72,57,52,42,30,80,47,13,29.90,29.84,29.78,10,10,10,20,8,24,0.00,0,,316
2013-9-19,91,72,52,48,44,36,83,50,17,29.85,29.79,29.71,10,10,10,6,2,8,0.00,0,,177
2013-9-20,83,70,57,57,51,44,67,51,35,29.83,29.77,29.73,10,10,10,22,7,29,0.00,0,,188
2013-9-21,70,65,60,58,56,52,90,72,53,29.88,29.83,29.80,10,8,2,18,5,23,0.48,6,Rain-Thunderstorm,192
2013-9-22,75,65,54,54,52,49,93,67,41,30.00,29.94,29.89,10,10,10,9,6,13,0.00,4,,299
2013-9-23,84,69,53,57,52,47,93,62,31,30.02,29.96,29.90,10,10,7,8,1,13,0.00,0,,254
2013-9-24,80,70,59,56,52,49,78,56,33,29.95,29.89,29.83,10,10,10,20,6,28,0.00,0,,187
2013-9-25,74,62,49,50,41,30,83,52,20,29.91,29.86,29.79,10,10,10,15,4,21,0.00,1,,313
2013-9-26,77,65,53,39,36,32,55,38,21,29.97,29.87,29.81,10,10,10,23,14,28,0.00,0,,326
2013-9-27,80,66,51,42,36,27,59,37,15,30.09,30.04,29.98,10,10,10,15,7,23,0.00,0,,334
2013-9-28,83,66,48,52,39,29,71,43,15,30.10,30.04,29.97,10,10,10,9,2,13,0.00,0,,191
2013-9-29,79,69,58,57,55,52,80,64,47,30.09,30.05,30.02,10,10,10,15,8,20,0.00,0,,207
2013-9-30,78,70,61,59,57,55,90,69,47,30.06,30.01,29.94,10,10,9,15,5,21,0.00,4,,186